sensor_id;sensor_type;location;lat;lon;timestamp;pressure;altitude;pressure_sealevel;temperature;humidity
55468;BME280;41332;42.702;23.200;2023-07-02T00:02:21;93359.84;;;16.38;85.62
55468;BME280;41332;42.702;23.200;2023-07-02T00:04:46;93368.19;;;16.43;85.15
55468;BME280;41332;42.702;23.200;2023-07-02T00:07:12;93360.25;;;16.47;84.94
55468;BME280;41332;42.702;23.200;2023-07-02T00:09:37;93365.94;;;16.49;84.97
55468;BME280;41332;42.702;23.200;2023-07-02T00:12:03;93355.34;;;16.53;84.69
55468;BME280;41332;42.702;23.200;2023-07-02T00:14:29;93350.78;;;16.46;85.41
55468;BME280;41332;42.702;23.200;2023-07-02T00:16:54;93344.38;;;16.51;85.08
55468;BME280;41332;42.702;23.200;2023-07-02T00:19:19;93350.03;;;16.53;85.28
55468;BME280;41332;42.702;23.200;2023-07-02T00:21:45;93341.72;;;16.40;84.89
55468;BME280;41332;42.702;23.200;2023-07-02T00:24:10;93341.66;;;16.33;85.78
55468;BME280;41332;42.702;23.200;2023-07-02T00:26:36;93350.75;;;16.24;86.42
55468;BME280;41332;42.702;23.200;2023-07-02T00:29:03;93359.44;;;16.28;85.81
55468;BME280;41332;42.702;23.200;2023-07-02T00:31:31;93367.03;;;16.30;86.38
55468;BME280;41332;42.702;23.200;2023-07-02T00:33:56;93367.78;;;16.27;86.32
55468;BME280;41332;42.702;23.200;2023-07-02T00:36:22;93369.28;;;16.24;86.38
55468;BME280;41332;42.702;23.200;2023-07-02T00:38:49;93372.69;;;16.28;86.42
55468;BME280;41332;42.702;23.200;2023-07-02T00:41:15;93374.63;;;16.35;86.14
55468;BME280;41332;42.702;23.200;2023-07-02T00:43:40;93379.94;;;16.42;85.86
55468;BME280;41332;42.702;23.200;2023-07-02T00:46:11;93385.22;;;16.39;85.41
55468;BME280;41332;42.702;23.200;2023-07-02T00:48:38;93381.44;;;16.36;85.45
55468;BME280;41332;42.702;23.200;2023-07-02T00:51:05;93381.47;;;16.40;84.94
55468;BME280;41332;42.702;23.200;2023-07-02T00:53:31;93379.53;;;16.37;85.49
55468;BME280;41332;42.702;23.200;2023-07-02T00:55:57;93370.75;;;16.14;85.47
55468;BME280;41332;42.702;23.200;2023-07-02T00:58:23;93370.78;;;16.22;86.69
55468;BME280;41332;42.702;23.200;2023-07-02T01:00:48;93370.78;;;16.18;86.46
55468;BME280;41332;42.702;23.200;2023-07-02T01:03:14;93367.72;;;16.16;86.62
55468;BME280;41332;42.702;23.200;2023-07-02T01:05:39;93373.81;;;16.24;86.66
55468;BME280;41332;42.702;23.200;2023-07-02T01:08:07;93355.66;;;16.22;86.68
55468;BME280;41332;42.702;23.200;2023-07-02T01:10:32;93360.97;;;16.29;87.96
55468;BME280;41332;42.702;23.200;2023-07-02T01:13:03;93354.19;;;16.39;87.84
55468;BME280;41332;42.702;23.200;2023-07-02T01:15:32;93358.72;;;16.39;86.91
55468;BME280;41332;42.702;23.200;2023-07-02T01:17:58;93358.72;;;16.39;86.53
55468;BME280;41332;42.702;23.200;2023-07-02T01:20:24;93346.22;;;16.36;86.75
55468;BME280;41332;42.702;23.200;2023-07-02T01:22:52;93333.00;;;16.43;86.76
55468;BME280;41332;42.702;23.200;2023-07-02T01:25:18;93326.94;;;16.39;86.46
55468;BME280;41332;42.702;23.200;2023-07-02T01:27:44;93327.28;;;16.30;86.70
55468;BME280;41332;42.702;23.200;2023-07-02T01:30:10;93328.44;;;16.43;86.65
55468;BME280;41332;42.702;23.200;2023-07-02T01:32:36;93323.94;;;16.62;84.99
55468;BME280;41332;42.702;23.200;2023-07-02T01:35:02;93322.81;;;16.67;86.65
55468;BME280;41332;42.702;23.200;2023-07-02T01:37:28;93330.03;;;16.70;86.68
55468;BME280;41332;42.702;23.200;2023-07-02T01:39:53;93330.03;;;16.70;86.06
55468;BME280;41332;42.702;23.200;2023-07-02T01:42:19;93338.72;;;16.70;86.26
55468;BME280;41332;42.702;23.200;2023-07-02T01:44:46;93344.03;;;16.74;86.62
55468;BME280;41332;42.702;23.200;2023-07-02T01:47:12;93332.66;;;16.77;85.92
55468;BME280;41332;42.702;23.200;2023-07-02T01:49:37;93330.41;;;16.79;85.45
55468;BME280;41332;42.702;23.200;2023-07-02T01:52:04;93320.94;;;16.81;85.47
55468;BME280;41332;42.702;23.200;2023-07-02T01:54:30;93303.53;;;16.91;85.69
55468;BME280;41332;42.702;23.200;2023-07-02T01:56:57;93299.72;;;16.85;87.57
55468;BME280;41332;42.702;23.200;2023-07-02T01:59:25;93306.19;;;16.91;86.99
55468;BME280;41332;42.702;23.200;2023-07-02T02:01:51;93297.88;;;16.93;86.39
55468;BME280;41332;42.702;23.200;2023-07-02T02:04:17;93308.09;;;16.94;85.41
55468;BME280;41332;42.702;23.200;2023-07-02T02:06:42;93314.91;;;16.99;85.41
55468;BME280;41332;42.702;23.200;2023-07-02T02:09:08;93319.03;;;16.89;86.11
55468;BME280;41332;42.702;23.200;2023-07-02T02:11:38;93311.47;;;16.91;86.49
55468;BME280;41332;42.702;23.200;2023-07-02T02:14:04;93313.41;;;16.94;87.43
55468;BME280;41332;42.702;23.200;2023-07-02T02:16:29;93311.88;;;16.97;87.48
55468;BME280;41332;42.702;23.200;2023-07-02T02:18:55;93298.59;;;17.04;86.55
55468;BME280;41332;42.702;23.200;2023-07-02T02:21:21;93303.13;;;16.89;86.37
55468;BME280;41332;42.702;23.200;2023-07-02T02:23:47;93294.44;;;16.92;86.52
55468;BME280;41332;42.702;23.200;2023-07-02T02:26:13;93286.50;;;16.96;86.58
55468;BME280;41332;42.702;23.200;2023-07-02T02:28:39;93278.53;;;17.00;86.28
55468;BME280;41332;42.702;23.200;2023-07-02T02:31:04;93272.09;;;16.97;85.97
55468;BME280;41332;42.702;23.200;2023-07-02T02:33:32;93261.44;;;16.86;87.53
55468;BME280;41332;42.702;23.200;2023-07-02T02:36:00;93266.75;;;16.79;88.33
55468;BME280;41332;42.702;23.200;2023-07-02T02:38:26;93271.69;;;16.77;87.74
55468;BME280;41332;42.702;23.200;2023-07-02T02:40:51;93275.09;;;16.70;88.56
55468;BME280;41332;42.702;23.200;2023-07-02T02:43:16;93278.50;;;16.60;89.37
55468;BME280;41332;42.702;23.200;2023-07-02T04:20:02;93350.38;;;16.26;91.56
55468;BME280;41332;42.702;23.200;2023-07-02T04:22:29;93360.59;;;16.31;92.54
55468;BME280;41332;42.702;23.200;2023-07-02T04:24:55;93357.97;;;16.38;92.53
55468;BME280;41332;42.702;23.200;2023-07-02T04:27:20;93360.25;;;16.43;92.08
55468;BME280;41332;42.702;23.200;2023-07-02T04:29:46;93372.00;;;16.46;91.18
55468;BME280;41332;42.702;23.200;2023-07-02T04:32:11;93378.06;;;16.46;90.77
55468;BME280;41332;42.702;23.200;2023-07-02T04:34:37;93385.25;;;16.46;92.38
55468;BME280;41332;42.702;23.200;2023-07-02T04:37:04;93378.47;;;16.56;92.35
55468;BME280;41332;42.702;23.200;2023-07-02T04:39:29;93383.03;;;16.62;91.93
55468;BME280;41332;42.702;23.200;2023-07-02T04:41:55;93379.25;;;16.71;91.42
55468;BME280;41332;42.702;23.200;2023-07-02T04:44:20;93373.19;;;16.67;91.28
55468;BME280;41332;42.702;23.200;2023-07-02T04:46:58;93386.81;;;16.65;91.63
55468;BME280;41332;42.702;23.200;2023-07-02T04:49:24;93388.72;;;16.75;90.98
55468;BME280;41332;42.702;23.200;2023-07-02T04:51:50;93383.44;;;16.79;90.56
55468;BME280;41332;42.702;23.200;2023-07-02T04:54:15;93388.38;;;16.84;89.99
55468;BME280;41332;42.702;23.200;2023-07-02T04:56:41;93379.63;;;16.73;88.61
55468;BME280;41332;42.702;23.200;2023-07-02T04:59:06;93391.38;;;16.72;90.23
55468;BME280;41332;42.702;23.200;2023-07-02T05:01:32;93385.31;;;16.75;90.76
55468;BME280;41332;42.702;23.200;2023-07-02T05:04:00;93391.03;;;16.84;89.52
55468;BME280;41332;42.702;23.200;2023-07-02T05:06:25;93386.47;;;16.88;90.14
55468;BME280;41332;42.702;23.200;2023-07-02T05:08:51;93392.19;;;16.97;90.26
55468;BME280;41332;42.702;23.200;2023-07-02T05:11:18;93392.22;;;17.05;90.05
55468;BME280;41332;42.702;23.200;2023-07-02T05:13:43;93392.59;;;17.10;89.18
55468;BME280;41332;42.702;23.200;2023-07-02T05:16:08;93384.66;;;17.14;88.10
55468;BME280;41332;42.702;23.200;2023-07-02T05:18:35;93380.84;;;17.08;87.75
55468;BME280;41332;42.702;23.200;2023-07-02T05:21:01;93391.09;;;17.17;88.32
55468;BME280;41332;42.702;23.200;2023-07-02T05:23:26;93402.84;;;17.05;89.76
55468;BME280;41332;42.702;23.200;2023-07-02T05:25:52;93392.22;;;17.16;88.47
55468;BME280;41332;42.702;23.200;2023-07-02T05:28:17;93396.75;;;17.19;87.45
55468;BME280;41332;42.702;23.200;2023-07-02T05:30:43;93389.19;;;17.13;88.47
55468;BME280;41332;42.702;23.200;2023-07-02T05:33:08;93395.25;;;17.18;87.04
55468;BME280;41332;42.702;23.200;2023-07-02T05:35:33;93403.59;;;17.23;87.43
55468;BME280;41332;42.702;23.200;2023-07-02T05:37:59;93405.13;;;17.28;88.80
55468;BME280;41332;42.702;23.200;2023-07-02T05:40:24;93410.41;;;17.24;88.22
55468;BME280;41332;42.702;23.200;2023-07-02T05:42:49;93421.03;;;17.35;87.77
55468;BME280;41332;42.702;23.200;2023-07-02T05:45:15;93421.44;;;17.41;88.42
55468;BME280;41332;42.702;23.200;2023-07-02T05:47:40;93412.69;;;17.26;87.64
55468;BME280;41332;42.702;23.200;2023-07-02T05:50:07;93425.19;;;17.47;87.30
55468;BME280;41332;42.702;23.200;2023-07-02T05:52:33;93419.53;;;17.49;86.64
55468;BME280;41332;42.702;23.200;2023-07-02T05:54:58;93421.03;;;17.50;87.67
55468;BME280;41332;42.702;23.200;2023-07-02T05:57:23;93414.22;;;17.67;87.72
55468;BME280;41332;42.702;23.200;2023-07-02T05:59:49;93406.25;;;17.52;87.11
55468;BME280;41332;42.702;23.200;2023-07-02T06:02:14;93421.41;;;17.70;87.41
55468;BME280;41332;42.702;23.200;2023-07-02T06:04:40;93421.03;;;17.82;87.49
55468;BME280;41332;42.702;23.200;2023-07-02T06:07:05;93408.50;;;17.83;86.53
55468;BME280;41332;42.702;23.200;2023-07-02T06:09:30;93406.19;;;17.88;87.05
55468;BME280;41332;42.702;23.200;2023-07-02T06:12:00;93402.03;;;17.98;86.99
55468;BME280;41332;42.702;23.200;2023-07-02T06:14:25;93390.28;;;17.70;83.03
55468;BME280;41332;42.702;23.200;2023-07-02T06:16:52;93381.91;;;17.90;83.22
55468;BME280;41332;42.702;23.200;2023-07-02T06:19:18;93381.53;;;18.06;84.07
55468;BME280;41332;42.702;23.200;2023-07-02T06:21:43;93386.03;;;18.20;85.20
55468;BME280;41332;42.702;23.200;2023-07-02T06:24:08;93392.09;;;18.27;84.86
55468;BME280;41332;42.702;23.200;2023-07-02T06:26:34;93392.41;;;18.40;84.86
55468;BME280;41332;42.702;23.200;2023-07-02T06:28:59;93391.19;;;18.56;83.43
55468;BME280;41332;42.702;23.200;2023-07-02T06:31:25;93392.19;;;18.80;84.57
55468;BME280;41332;42.702;23.200;2023-07-02T06:33:50;93388.31;;;18.99;83.12
55468;BME280;41332;42.702;23.200;2023-07-02T06:36:15;93383.66;;;19.14;80.30
55468;BME280;41332;42.702;23.200;2023-07-02T06:38:42;93381.25;;;19.31;77.29
55468;BME280;41332;42.702;23.200;2023-07-02T06:41:08;93375.22;;;19.23;72.27
55468;BME280;41332;42.702;23.200;2023-07-02T06:43:33;93376.22;;;19.40;72.99
55468;BME280;41332;42.702;23.200;2023-07-02T06:45:59;93373.50;;;19.47;75.30
55468;BME280;41332;42.702;23.200;2023-07-02T06:48:24;93367.06;;;19.44;74.94
55468;BME280;41332;42.702;23.200;2023-07-02T06:50:49;93369.72;;;19.44;73.93
55468;BME280;41332;42.702;23.200;2023-07-02T06:53:15;93367.34;;;19.54;75.36
55468;BME280;41332;42.702;23.200;2023-07-02T06:55:40;93371.53;;;19.55;72.71
55468;BME280;41332;42.702;23.200;2023-07-02T06:58:06;93375.25;;;19.65;72.58
55468;BME280;41332;42.702;23.200;2023-07-02T07:00:32;93383.94;;;19.72;71.12
55468;BME280;41332;42.702;23.200;2023-07-02T07:03:01;93381.88;;;19.91;71.79
55468;BME280;41332;42.702;23.200;2023-07-02T07:05:28;93383.03;;;20.24;71.67
55468;BME280;41332;42.702;23.200;2023-07-02T07:07:54;93373.59;;;20.51;72.52
55468;BME280;41332;42.702;23.200;2023-07-02T07:10:19;93377.13;;;20.75;70.73
55468;BME280;41332;42.702;23.200;2023-07-02T07:12:45;93377.06;;;21.06;70.00
55468;BME280;41332;42.702;23.200;2023-07-02T07:15:10;93367.38;;;21.16;66.96
55468;BME280;41332;42.702;23.200;2023-07-02T07:17:36;93370.34;;;21.21;65.41
55468;BME280;41332;42.702;23.200;2023-07-02T07:20:01;93369.88;;;21.27;67.06
55468;BME280;41332;42.702;23.200;2023-07-02T07:22:30;93367.44;;;21.36;65.18
55468;BME280;41332;42.702;23.200;2023-07-02T07:24:55;93374.59;;;21.43;65.41
55468;BME280;41332;42.702;23.200;2023-07-02T07:27:20;93369.59;;;21.68;66.65
55468;BME280;41332;42.702;23.200;2023-07-02T07:29:46;93358.97;;;21.65;69.10
55468;BME280;41332;42.702;23.200;2023-07-02T07:32:11;93366.00;;;21.99;69.97
55468;BME280;41332;42.702;23.200;2023-07-02T07:34:37;93366.56;;;22.10;62.07
55468;BME280;41332;42.702;23.200;2023-07-02T07:37:02;93358.00;;;22.19;63.67
55468;BME280;41332;42.702;23.200;2023-07-02T07:39:28;93358.13;;;21.92;67.78
55468;BME280;41332;42.702;23.200;2023-07-02T07:41:53;93359.84;;;22.02;66.93
55468;BME280;41332;42.702;23.200;2023-07-02T07:44:18;93358.81;;;21.96;66.96
55468;BME280;41332;42.702;23.200;2023-07-02T07:46:44;93363.31;;;21.79;67.69
55468;BME280;41332;42.702;23.200;2023-07-02T07:49:09;93368.66;;;21.07;70.50
55468;BME280;41332;42.702;23.200;2023-07-02T07:51:35;93367.13;;;21.58;67.90
55468;BME280;41332;42.702;23.200;2023-07-02T07:54:03;93371.28;;;21.82;69.26
55468;BME280;41332;42.702;23.200;2023-07-02T07:56:28;93370.53;;;22.02;68.59
55468;BME280;41332;42.702;23.200;2023-07-02T07:58:54;93375.63;;;22.16;68.67
55468;BME280;41332;42.702;23.200;2023-07-02T08:01:19;93372.16;;;22.39;67.38
55468;BME280;41332;42.702;23.200;2023-07-02T08:03:45;93381.44;;;22.11;65.85
55468;BME280;41332;42.702;23.200;2023-07-02T08:06:11;93382.00;;;22.43;66.20
55468;BME280;41332;42.702;23.200;2023-07-02T08:08:36;93372.66;;;22.31;63.85
55468;BME280;41332;42.702;23.200;2023-07-02T08:11:02;93376.38;;;22.57;66.21
55468;BME280;41332;42.702;23.200;2023-07-02T08:13:29;93374.50;;;22.91;66.14
55468;BME280;41332;42.702;23.200;2023-07-02T08:15:55;93371.78;;;23.11;65.22
55468;BME280;41332;42.702;23.200;2023-07-02T08:18:20;93373.56;;;23.17;62.29
55468;BME280;41332;42.702;23.200;2023-07-02T08:20:46;93369.88;;;23.28;60.84
55468;BME280;41332;42.702;23.200;2023-07-02T08:23:11;93363.03;;;23.43;63.46
55468;BME280;41332;42.702;23.200;2023-07-02T08:25:37;93369.09;;;23.60;63.31
55468;BME280;41332;42.702;23.200;2023-07-02T08:28:02;93375.44;;;23.83;62.86
55468;BME280;41332;42.702;23.200;2023-07-02T08:30:27;93365.56;;;23.96;62.98
55468;BME280;41332;42.702;23.200;2023-07-02T08:32:53;93366.91;;;23.88;57.16
55468;BME280;41332;42.702;23.200;2023-07-02T08:35:20;93365.72;;;24.18;59.89
55468;BME280;41332;42.702;23.200;2023-07-02T08:37:45;93367.50;;;24.51;56.91
55468;BME280;41332;42.702;23.200;2023-07-02T08:40:20;93358.25;;;24.81;57.23
55468;BME280;41332;42.702;23.200;2023-07-02T08:42:46;93368.13;;;25.10;58.01
55468;BME280;41332;42.702;23.200;2023-07-02T08:45:15;93361.84;;;25.26;56.24
55468;BME280;41332;42.702;23.200;2023-07-02T08:47:42;93366.41;;;25.16;54.19
55468;BME280;41332;42.702;23.200;2023-07-02T08:50:08;93366.59;;;24.96;52.19
55468;BME280;41332;42.702;23.200;2023-07-02T08:52:33;93367.56;;;25.54;53.20
55468;BME280;41332;42.702;23.200;2023-07-02T08:54:59;93376.50;;;25.86;54.29
55468;BME280;41332;42.702;23.200;2023-07-02T08:57:24;93368.59;;;26.05;54.58
55468;BME280;41332;42.702;23.200;2023-07-02T08:59:50;93369.53;;;26.33;51.43
55468;BME280;41332;42.702;23.200;2023-07-02T09:02:17;93369.41;;;26.37;45.82
55468;BME280;41332;42.702;23.200;2023-07-02T09:04:42;93365.31;;;25.88;45.57
55468;BME280;41332;42.702;23.200;2023-07-02T09:07:11;93368.22;;;25.45;51.72
55468;BME280;41332;42.702;23.200;2023-07-02T09:09:49;93371.13;;;25.51;50.16
55468;BME280;41332;42.702;23.200;2023-07-02T09:12:26;93368.72;;;25.53;50.17
55468;BME280;41332;42.702;23.200;2023-07-02T09:15:03;93378.13;;;25.36;49.24
55468;BME280;41332;42.702;23.200;2023-07-02T09:17:35;93369.91;;;25.52;51.71
55468;BME280;41332;42.702;23.200;2023-07-02T09:20:03;93372.34;;;25.72;49.16
55468;BME280;41332;42.702;23.200;2023-07-02T09:22:34;93367.72;;;26.08;49.91
55468;BME280;41332;42.702;23.200;2023-07-02T09:25:00;93370.84;;;26.28;47.88
55468;BME280;41332;42.702;23.200;2023-07-02T09:27:39;93363.81;;;26.53;47.92
55468;BME280;41332;42.702;23.200;2023-07-02T09:30:10;93370.13;;;26.81;49.83
55468;BME280;41332;42.702;23.200;2023-07-02T09:32:38;93370.63;;;26.67;45.96
55468;BME280;41332;42.702;23.200;2023-07-02T09:35:04;93373.09;;;26.52;46.95
55468;BME280;41332;42.702;23.200;2023-07-02T09:37:30;93361.00;;;26.57;47.81
55468;BME280;41332;42.702;23.200;2023-07-02T09:39:56;93367.47;;;26.69;46.36
55468;BME280;41332;42.702;23.200;2023-07-02T09:42:22;93361.69;;;26.70;45.76
55468;BME280;41332;42.702;23.200;2023-07-02T09:44:48;93365.75;;;26.75;45.36
55468;BME280;41332;42.702;23.200;2023-07-02T09:47:18;93369.94;;;26.76;45.81
55468;BME280;41332;42.702;23.200;2023-07-02T09:49:57;93363.41;;;26.86;48.56
55468;BME280;41332;42.702;23.200;2023-07-02T09:52:25;93366.81;;;26.77;47.52
55468;BME280;41332;42.702;23.200;2023-07-02T09:54:51;93362.97;;;26.88;45.09
55468;BME280;41332;42.702;23.200;2023-07-02T09:57:17;93361.34;;;27.00;43.60
55468;BME280;41332;42.702;23.200;2023-07-02T09:59:42;93366.44;;;26.44;42.81
55468;BME280;41332;42.702;23.200;2023-07-02T10:02:12;93354.28;;;26.61;47.65
55468;BME280;41332;42.702;23.200;2023-07-02T10:04:46;93350.25;;;26.35;47.74
55468;BME280;41332;42.702;23.200;2023-07-02T10:07:12;93357.31;;;26.41;42.32
55468;BME280;41332;42.702;23.200;2023-07-02T10:09:42;93352.94;;;26.35;43.11
55468;BME280;41332;42.702;23.200;2023-07-02T10:12:21;93344.91;;;26.44;47.19
55468;BME280;41332;42.702;23.200;2023-07-02T10:14:49;93342.53;;;26.46;46.44
55468;BME280;41332;42.702;23.200;2023-07-02T10:17:24;93331.09;;;26.55;46.20
55468;BME280;41332;42.702;23.200;2023-07-02T10:19:51;93333.69;;;26.68;48.17
55468;BME280;41332;42.702;23.200;2023-07-02T10:22:17;93330.53;;;25.93;44.03
55468;BME280;41332;42.702;23.200;2023-07-02T10:24:56;93337.69;;;26.09;44.24
55468;BME280;41332;42.702;23.200;2023-07-02T10:27:40;93330.06;;;26.30;45.55
55468;BME280;41332;42.702;23.200;2023-07-02T10:30:08;93336.66;;;25.94;43.63
55468;BME280;41332;42.702;23.200;2023-07-02T10:32:34;93338.13;;;26.30;44.05
55468;BME280;41332;42.702;23.200;2023-07-02T10:35:21;93336.34;;;26.36;43.44
55468;BME280;41332;42.702;23.200;2023-07-02T10:37:46;93333.63;;;26.58;44.15
55468;BME280;41332;42.702;23.200;2023-07-02T10:40:12;93338.69;;;26.78;46.89
55468;BME280;41332;42.702;23.200;2023-07-02T10:42:48;93340.09;;;26.92;43.50
55468;BME280;41332;42.702;23.200;2023-07-02T10:45:14;93334.25;;;26.62;40.52
55468;BME280;41332;42.702;23.200;2023-07-02T10:47:40;93335.78;;;25.97;43.08
55468;BME280;41332;42.702;23.200;2023-07-02T10:50:21;93330.84;;;26.40;46.05
55468;BME280;41332;42.702;23.200;2023-07-02T10:52:47;93333.50;;;26.62;44.09
55468;BME280;41332;42.702;23.200;2023-07-02T10:55:23;93327.91;;;26.78;47.09
55468;BME280;41332;42.702;23.200;2023-07-02T10:57:49;93327.94;;;26.88;42.90
55468;BME280;41332;42.702;23.200;2023-07-02T11:00:16;93327.13;;;27.09;41.25
55468;BME280;41332;42.702;23.200;2023-07-02T11:02:42;93325.81;;;27.23;41.83
55468;BME280;41332;42.702;23.200;2023-07-02T11:05:08;93333.75;;;27.27;45.34
55468;BME280;41332;42.702;23.200;2023-07-02T11:07:46;93331.72;;;27.40;42.14
55468;BME280;41332;42.702;23.200;2023-07-02T11:10:17;93335.63;;;27.58;43.51
55468;BME280;41332;42.702;23.200;2023-07-02T11:12:43;93331.81;;;27.37;42.67
55468;BME280;41332;42.702;23.200;2023-07-02T11:15:10;93331.03;;;27.18;45.80
55468;BME280;41332;42.702;23.200;2023-07-02T11:17:35;93338.44;;;26.86;47.54
55468;BME280;41332;42.702;23.200;2023-07-02T11:20:03;93345.84;;;26.72;48.37
55468;BME280;41332;42.702;23.200;2023-07-02T11:22:32;93354.13;;;26.33;47.81
55468;BME280;41332;42.702;23.200;2023-07-02T11:25:14;93347.81;;;26.05;47.78
55468;BME280;41332;42.702;23.200;2023-07-02T11:27:41;93355.88;;;26.05;48.80
55468;BME280;41332;42.702;23.200;2023-07-02T11:30:07;93356.22;;;26.07;47.49
55468;BME280;41332;42.702;23.200;2023-07-02T11:32:53;93360.25;;;25.77;47.32
55468;BME280;41332;42.702;23.200;2023-07-02T11:35:19;93351.25;;;25.36;47.88
55468;BME280;41332;42.702;23.200;2023-07-02T11:37:44;93351.13;;;25.26;46.36
55468;BME280;41332;42.702;23.200;2023-07-02T11:40:11;93356.94;;;24.99;50.39
55468;BME280;41332;42.702;23.200;2023-07-02T11:42:37;93356.41;;;24.78;52.98
55468;BME280;41332;42.702;23.200;2023-07-02T11:45:03;93360.28;;;24.90;52.88
55468;BME280;41332;42.702;23.200;2023-07-02T11:47:28;93361.94;;;24.45;56.71
55468;BME280;41332;42.702;23.200;2023-07-02T11:49:54;93353.34;;;24.38;59.30
55468;BME280;41332;42.702;23.200;2023-07-02T11:52:24;93355.59;;;24.52;59.24
55468;BME280;41332;42.702;23.200;2023-07-02T11:54:50;93346.53;;;24.33;60.80
55468;BME280;41332;42.702;23.200;2023-07-02T11:57:15;93352.78;;;24.30;60.73
55468;BME280;41332;42.702;23.200;2023-07-02T11:59:41;93359.63;;;24.18;61.96
55468;BME280;41332;42.702;23.200;2023-07-02T12:02:07;93348.97;;;24.14;60.69
55468;BME280;41332;42.702;23.200;2023-07-02T12:04:32;93337.84;;;24.29;59.62
55468;BME280;41332;42.702;23.200;2023-07-02T12:06:58;93334.66;;;24.34;60.67
55468;BME280;41332;42.702;23.200;2023-07-02T12:09:26;93334.75;;;24.30;60.06
55468;BME280;41332;42.702;23.200;2023-07-02T12:11:52;93336.78;;;24.26;59.37
55468;BME280;41332;42.702;23.200;2023-07-02T12:14:18;93340.09;;;24.30;59.73
55468;BME280;41332;42.702;23.200;2023-07-02T12:16:43;93340.00;;;24.34;60.14
55468;BME280;41332;42.702;23.200;2023-07-02T12:19:08;93345.94;;;24.42;63.15
55468;BME280;41332;42.702;23.200;2023-07-02T12:21:34;93351.84;;;24.49;61.89
55468;BME280;41332;42.702;23.200;2023-07-02T12:23:59;93348.66;;;24.67;58.09
55468;BME280;41332;42.702;23.200;2023-07-02T12:26:25;93350.72;;;24.76;58.75
55468;BME280;41332;42.702;23.200;2023-07-02T12:28:50;93351.81;;;24.36;57.72
55468;BME280;41332;42.702;23.200;2023-07-02T12:31:15;93353.25;;;24.54;59.21
55468;BME280;41332;42.702;23.200;2023-07-02T12:33:41;93355.66;;;24.65;57.64
55468;BME280;41332;42.702;23.200;2023-07-02T12:36:06;93350.44;;;24.58;56.84
55468;BME280;41332;42.702;23.200;2023-07-02T12:38:32;93353.56;;;24.56;57.93
55468;BME280;41332;42.702;23.200;2023-07-02T12:40:57;93358.34;;;24.65;58.60
55468;BME280;41332;42.702;23.200;2023-07-02T12:43:23;93350.63;;;24.80;59.10
55468;BME280;41332;42.702;23.200;2023-07-02T12:45:48;93346.53;;;24.88;57.16
55468;BME280;41332;42.702;23.200;2023-07-02T12:48:13;93343.66;;;24.95;56.88
55468;BME280;41332;42.702;23.200;2023-07-02T12:50:39;93342.31;;;25.13;57.59
55468;BME280;41332;42.702;23.200;2023-07-02T12:53:05;93344.28;;;25.12;57.07
55468;BME280;41332;42.702;23.200;2023-07-02T12:55:30;93345.66;;;24.91;54.09
55468;BME280;41332;42.702;23.200;2023-07-02T12:57:56;93342.66;;;24.63;55.38
55468;BME280;41332;42.702;23.200;2023-07-02T13:00:21;93347.59;;;24.65;55.29
55468;BME280;41332;42.702;23.200;2023-07-02T13:02:47;93340.28;;;24.65;59.22
55468;BME280;41332;42.702;23.200;2023-07-02T13:05:12;93342.66;;;24.76;57.82
55468;BME280;41332;42.702;23.200;2023-07-02T13:07:38;93332.25;;;24.78;56.89
55468;BME280;41332;42.702;23.200;2023-07-02T13:10:04;93341.06;;;24.79;55.41
55468;BME280;41332;42.702;23.200;2023-07-02T13:12:30;93333.22;;;24.84;56.10
55468;BME280;41332;42.702;23.200;2023-07-02T13:14:55;93332.78;;;24.86;55.88
55468;BME280;41332;42.702;23.200;2023-07-02T13:17:21;93325.25;;;24.81;56.90
55468;BME280;41332;42.702;23.200;2023-07-02T13:19:46;93318.50;;;24.76;58.91
55468;BME280;41332;42.702;23.200;2023-07-02T13:22:12;93318.50;;;24.76;59.81
55468;BME280;41332;42.702;23.200;2023-07-02T13:24:37;93329.00;;;24.71;60.78
55468;BME280;41332;42.702;23.200;2023-07-02T13:27:04;93325.56;;;24.57;61.95
55468;BME280;41332;42.702;23.200;2023-07-02T13:29:35;93323.19;;;24.46;62.76
55468;BME280;41332;42.702;23.200;2023-07-02T13:32:01;93321.88;;;24.38;62.67
55468;BME280;41332;42.702;23.200;2023-07-02T13:34:26;93321.63;;;24.19;63.11
55468;BME280;41332;42.702;23.200;2023-07-02T13:36:51;93320.13;;;24.18;61.96
55468;BME280;41332;42.702;23.200;2023-07-02T13:39:17;93316.16;;;24.10;60.85
55468;BME280;41332;42.702;23.200;2023-07-02T13:44:07;93332.00;;;23.75;63.04
55468;BME280;41332;42.702;23.200;2023-07-02T13:46:33;93324.53;;;23.66;64.20
55468;BME280;41332;42.702;23.200;2023-07-02T13:48:58;93317.81;;;23.45;64.44
55468;BME280;41332;42.702;23.200;2023-07-02T13:51:24;93332.72;;;23.30;67.16
55468;BME280;41332;42.702;23.200;2023-07-02T13:53:49;93334.47;;;23.20;67.14
55468;BME280;41332;42.702;23.200;2023-07-02T13:56:14;93334.38;;;23.07;68.12
55468;BME280;41332;42.702;23.200;2023-07-02T14:01:20;93337.94;;;22.84;73.55
55468;BME280;41332;42.702;23.200;2023-07-02T14:03:46;93333.09;;;22.79;73.15
55468;BME280;41332;42.702;23.200;2023-07-02T14:06:11;93327.41;;;22.77;72.37
55468;BME280;41332;42.702;23.200;2023-07-02T14:08:36;93316.38;;;22.75;73.69
55468;BME280;41332;42.702;23.200;2023-07-02T14:11:05;93315.41;;;22.48;75.73
55468;BME280;41332;42.702;23.200;2023-07-02T14:13:30;93315.47;;;22.45;74.55
55468;BME280;41332;42.702;23.200;2023-07-02T14:15:56;93318.38;;;22.34;77.06
55468;BME280;41332;42.702;23.200;2023-07-02T14:18:21;93311.38;;;22.40;75.32
55468;BME280;41332;42.702;23.200;2023-07-02T14:20:46;93313.22;;;22.43;75.06
55468;BME280;41332;42.702;23.200;2023-07-02T14:23:12;93306.28;;;22.26;75.89
55468;BME280;41332;42.702;23.200;2023-07-02T14:25:37;93317.75;;;22.26;76.57
55468;BME280;41332;42.702;23.200;2023-07-02T14:28:03;93320.97;;;22.17;76.34